Time;durP1;ratioP1;P1;durP2;ratioP2;P2;SDS_P1;SDS_P2;PMS_P1;PMS_P2;Temp;Humidity;BMP_temperature;BMP_pressure;BME280_temperature;BME280_humidity;BME280_pressure;Samples;Min_cycle;Max_cycle;Signal;HPM_P1;HPM_P2
2024/01/21 00:01:20;;;;;;;24.35;20.88;;;;;;;;;;5094208;28;20479;-66
2024/01/21 00:03:46;;;;;;;27.35;22.65;;;;;;;;;;5091286;28;20699;-66
2024/01/21 00:06:14;;;;;;;26.10;17.33;;;;;;;;;;5091742;28;20204;-66
2024/01/21 00:08:41;;;;;;;25.17;21.45;;;;;;;;;;5096972;28;20228;-66
2024/01/21 00:11:07;;;;;;;23.60;21.05;;;;;;;;;;5092773;28;20237;-67
2024/01/21 00:13:34;;;;;;;26.08;21.77;;;;;;;;;;5093488;28;20205;-65
2024/01/21 00:16:00;;;;;;;25.30;22.33;;;;;;;;;;5098267;28;20227;-66
2024/01/21 00:18:27;;;;;;;25.25;16.42;;;;;;;;;;5089180;28;20236;-65
2024/01/21 00:20:53;;;;;;;25.70;17.75;;;;;;;;;;5091159;28;20199;-65
2024/01/21 00:23:21;;;;;;;26.65;20.95;;;;;;;;;;5094335;28;20568;-65
2024/01/21 00:25:47;;;;;;;24.97;22.33;;;;;;;;;;5092512;28;20208;-66
2024/01/21 00:28:13;;;;;;;24.48;21.90;;;;;;;;;;5090768;28;20491;-65
2024/01/21 00:30:40;;;;;;;24.30;21.65;;;;;;;;;;5097684;28;20230;-65
2024/01/21 00:33:06;;;;;;;25.85;23.20;;;;;;;;;;5088287;28;20216;-66
2024/01/21 00:35:33;;;;;;;23.55;19.90;;;;;;;;;;5088937;28;20209;-66
2024/01/21 00:37:59;;;;;;;25.40;18.48;;;;;;;;;;5095683;28;20219;-67
2024/01/21 00:40:27;;;;;;;26.48;22.98;;;;;;;;;;5096914;28;20237;-66
2024/01/21 00:42:56;;;;;;;25.05;21.35;;;;;;;;;;5093470;28;20212;-65
2024/01/21 00:45:22;;;;;;;26.15;22.60;;;;;;;;;;5094593;28;20278;-67
2024/01/21 00:47:48;;;;;;;24.55;21.55;;;;;;;;;;5094730;28;20227;-65
2024/01/21 00:50:15;;;;;;;29.15;23.70;;;;;;;;;;5093314;28;20293;-66
2024/01/21 00:52:41;;;;;;;25.10;20.27;;;;;;;;;;5099783;28;20307;-66
2024/01/21 00:55:08;;;;;;;26.52;22.38;;;;;;;;;;5097760;28;20235;-67
2024/01/21 00:57:36;;;;;;;26.35;23.38;;;;;;;;;;5094167;28;20743;-67
2024/01/21 01:00:03;;;;;;;27.27;19.75;;;;;;;;;;5095043;28;20385;-67
2024/01/21 01:02:30;;;;;;;22.17;18.05;;;;;;;;;;5096128;28;20218;-67
2024/01/21 01:04:57;;;;;;;26.30;17.67;;;;;;;;;;5097692;28;20235;-67
2024/01/21 01:07:24;;;;;;;26.10;23.35;;;;;;;;;;5090652;28;20204;-66
2024/01/21 01:09:52;;;;;;;25.17;21.73;;;;;;;;;;5093725;28;20228;-67
2024/01/21 01:12:18;;;;;;;26.67;23.40;;;;;;;;;;5090439;28;20216;-67
2024/01/21 01:14:46;;;;;;;28.73;22.83;;;;;;;;;;5094935;28;20242;-67
2024/01/21 01:17:13;;;;;;;23.80;21.33;;;;;;;;;;5091329;28;20326;-67
2024/01/21 01:19:38;;;;;;;25.45;21.88;;;;;;;;;;5092209;28;20760;-67
2024/01/21 01:22:05;;;;;;;23.93;21.43;;;;;;;;;;5093060;28;20209;-67
2024/01/21 01:24:31;;;;;;;22.23;19.52;;;;;;;;;;5096436;28;20272;-67
2024/01/21 01:26:56;;;;;;;22.42;19.98;;;;;;;;;;5092305;28;20236;-67
2024/01/21 01:29:23;;;;;;;22.90;20.13;;;;;;;;;;5093019;28;20200;-67
2024/01/21 01:31:50;;;;;;;23.27;20.80;;;;;;;;;;5094612;28;20234;-65
2024/01/21 01:34:17;;;;;;;22.15;19.80;;;;;;;;;;5088300;28;20240;-65
2024/01/21 01:36:43;;;;;;;23.00;20.50;;;;;;;;;;5099277;28;20259;-66
2024/01/21 01:39:10;;;;;;;21.67;16.33;;;;;;;;;;5097815;28;20230;-65
2024/01/21 01:41:36;;;;;;;21.02;18.83;;;;;;;;;;5096465;28;20225;-65
2024/01/21 01:44:03;;;;;;;21.55;19.35;;;;;;;;;;5087389;28;20246;-65
2024/01/21 01:46:29;;;;;;;21.85;19.45;;;;;;;;;;5094224;28;20201;-65
2024/01/21 01:48:57;;;;;;;21.25;19.10;;;;;;;;;;5088115;28;20582;-67
2024/01/21 01:51:24;;;;;;;20.90;16.77;;;;;;;;;;5098284;28;20263;-67
2024/01/21 01:53:50;;;;;;;19.80;14.90;;;;;;;;;;5091794;28;20564;-67
2024/01/21 01:56:17;;;;;;;21.70;13.38;;;;;;;;;;5090886;28;20301;-67
2024/01/21 01:58:44;;;;;;;15.85;13.25;;;;;;;;;;5093199;28;20302;-66
2024/01/21 02:01:10;;;;;;;15.30;13.68;;;;;;;;;;5086830;28;20264;-65
2024/01/21 02:03:36;;;;;;;20.52;18.52;;;;;;;;;;5090244;28;20205;-65
2024/01/21 02:06:04;;;;;;;20.13;18.13;;;;;;;;;;5085732;28;20288;-67
2024/01/21 02:08:31;;;;;;;19.67;17.80;;;;;;;;;;5104804;28;20640;-67
2024/01/21 02:10:57;;;;;;;20.27;18.27;;;;;;;;;;5092268;28;20479;-67
2024/01/21 02:13:23;;;;;;;14.03;12.50;;;;;;;;;;5083347;28;20516;-66
2024/01/21 02:15:50;;;;;;;15.00;13.55;;;;;;;;;;5082050;28;20472;-67
2024/01/21 02:18:17;;;;;;;12.80;11.50;;;;;;;;;;5092665;28;20316;-66
2024/01/21 02:20:43;;;;;;;13.33;11.93;;;;;;;;;;5093487;28;20443;-65
2024/01/21 02:23:11;;;;;;;12.70;11.60;;;;;;;;;;5092065;28;20482;-65
2024/01/21 02:25:37;;;;;;;13.00;11.90;;;;;;;;;;5089090;28;20448;-65
2024/01/21 02:28:04;;;;;;;12.33;11.33;;;;;;;;;;5089148;28;20510;-65
2024/01/21 02:30:30;;;;;;;12.93;11.73;;;;;;;;;;5095427;28;20454;-65
2024/01/21 02:32:57;;;;;;;12.40;11.40;;;;;;;;;;5091833;28;20494;-66
2024/01/21 02:35:23;;;;;;;12.37;11.27;;;;;;;;;;5100961;28;20470;-66
2024/01/21 02:37:49;;;;;;;11.87;10.70;;;;;;;;;;5095161;28;20499;-65
2024/01/21 02:40:17;;;;;;;12.00;11.10;;;;;;;;;;5092203;28;20513;-66
2024/01/21 02:42:44;;;;;;;13.10;11.90;;;;;;;;;;5092037;28;20993;-66
2024/01/21 02:45:10;;;;;;;9.60;8.80;;;;;;;;;;5102224;28;20471;-65
2024/01/21 02:47:36;;;;;;;10.70;9.70;;;;;;;;;;5095913;28;21033;-66
2024/01/21 02:50:03;;;;;;;11.20;10.40;;;;;;;;;;5098168;28;20522;-66
2024/01/21 02:52:29;;;;;;;11.63;10.70;;;;;;;;;;5087566;28;20598;-65
2024/01/21 02:54:56;;;;;;;12.73;11.57;;;;;;;;;;5094380;28;20626;-65
2024/01/21 02:57:23;;;;;;;12.30;11.27;;;;;;;;;;5094061;28;20455;-65
2024/01/21 02:59:50;;;;;;;11.63;10.77;;;;;;;;;;5099386;28;20494;-65
2024/01/21 03:02:17;;;;;;;11.93;10.80;;;;;;;;;;5101514;28;20519;-65
2024/01/21 03:04:43;;;;;;;11.20;10.07;;;;;;;;;;5096723;28;20483;-65
2024/01/21 03:07:10;;;;;;;10.80;10.03;;;;;;;;;;5096513;28;20537;-65
2024/01/21 03:09:36;;;;;;;10.60;9.83;;;;;;;;;;5100012;28;20447;-65
2024/01/21 03:12:02;;;;;;;11.43;10.60;;;;;;;;;;5100576;28;20553;-65
2024/01/21 03:14:30;;;;;;;10.97;10.27;;;;;;;;;;5094659;28;20518;-66
2024/01/21 03:16:56;;;;;;;11.03;10.23;;;;;;;;;;5090687;28;20558;-66
2024/01/21 03:19:23;;;;;;;11.00;10.20;;;;;;;;;;5098218;28;20582;-66
2024/01/21 03:21:49;;;;;;;11.20;10.20;;;;;;;;;;5088337;28;20471;-65
2024/01/21 03:24:16;;;;;;;10.93;10.13;;;;;;;;;;5099260;28;20493;-65
2024/01/21 03:26:42;;;;;;;11.57;10.67;;;;;;;;;;5097675;28;20538;-65
2024/01/21 03:29:08;;;;;;;12.07;11.00;;;;;;;;;;5092545;28;20443;-66
2024/01/21 03:31:36;;;;;;;12.00;11.10;;;;;;;;;;5096407;28;20519;-65
2024/01/21 03:34:03;;;;;;;12.67;11.67;;;;;;;;;;5096749;28;20495;-66
2024/01/21 03:36:32;;;;;;;11.30;10.30;;;;;;;;;;5101075;28;20480;-66
2024/01/21 03:38:58;;;;;;;12.10;10.73;;;;;;;;;;5090857;28;20503;-66
2024/01/21 03:41:25;;;;;;;9.50;8.70;;;;;;;;;;5094238;28;20478;-65
2024/01/21 03:43:51;;;;;;;9.60;8.90;;;;;;;;;;5089427;28;20486;-65
2024/01/21 03:46:17;;;;;;;10.20;9.30;;;;;;;;;;5093349;28;20537;-65
2024/01/21 03:48:45;;;;;;;9.53;8.83;;;;;;;;;;5105772;28;20513;-65
2024/01/21 03:51:12;;;;;;;9.67;8.97;;;;;;;;;;5099521;28;20482;-65
2024/01/21 03:53:39;;;;;;;9.80;8.97;;;;;;;;;;5095582;28;20982;-65
2024/01/21 03:56:06;;;;;;;9.20;8.50;;;;;;;;;;5098539;28;20447;-66
2024/01/21 03:58:32;;;;;;;9.73;9.00;;;;;;;;;;5096282;28;20731;-65
2024/01/21 04:00:59;;;;;;;10.07;9.47;;;;;;;;;;5098964;28;20465;-66
2024/01/21 04:03:25;;;;;;;11.13;10.23;;;;;;;;;;5097542;28;20546;-66
2024/01/21 04:05:53;;;;;;;10.70;9.73;;;;;;;;;;5093697;28;20455;-65
2024/01/21 04:08:19;;;;;;;10.73;9.93;;;;;;;;;;5087647;28;20475;-65
2024/01/21 04:10:47;;;;;;;11.23;10.27;;;;;;;;;;5093053;28;20447;-65
2024/01/21 04:13:13;;;;;;;10.83;10.03;;;;;;;;;;5103973;28;20936;-65
2024/01/21 04:15:40;;;;;;;10.60;9.70;;;;;;;;;;5095858;28;20478;-66
2024/01/21 04:18:06;;;;;;;11.10;10.23;;;;;;;;;;5095529;28;20503;-65
2024/01/21 04:20:33;;;;;;;11.17;10.33;;;;;;;;;;5090251;28;20494;-66
2024/01/21 04:23:00;;;;;;;10.93;10.00;;;;;;;;;;5095837;28;20487;-66
2024/01/21 04:25:27;;;;;;;9.63;9.03;;;;;;;;;;5090421;28;20490;-66
2024/01/21 04:27:53;;;;;;;10.33;9.63;;;;;;;;;;5104314;28;20486;-65
2024/01/21 04:30:19;;;;;;;11.40;10.50;;;;;;;;;;5095943;28;20487;-65
2024/01/21 04:32:46;;;;;;;10.90;10.17;;;;;;;;;;5103992;28;20876;-66
2024/01/21 04:35:12;;;;;;;10.87;9.87;;;;;;;;;;5091903;28;21047;-65
2024/01/21 04:37:39;;;;;;;10.20;9.50;;;;;;;;;;5091126;28;20510;-66
2024/01/21 04:40:07;;;;;;;10.70;9.80;;;;;;;;;;5092493;28;20606;-66
2024/01/21 04:42:34;;;;;;;11.13;10.20;;;;;;;;;;5087860;28;20880;-65
2024/01/21 04:45:00;;;;;;;10.23;9.37;;;;;;;;;;5097913;28;20454;-65
2024/01/21 04:47:26;;;;;;;10.13;9.33;;;;;;;;;;5094646;28;20471;-65
2024/01/21 04:49:53;;;;;;;10.70;10.00;;;;;;;;;;5096582;28;20502;-66
2024/01/21 04:52:20;;;;;;;9.20;8.63;;;;;;;;;;5098678;28;20542;-66
2024/01/21 04:54:46;;;;;;;10.20;9.30;;;;;;;;;;5100145;28;20458;-66
2024/01/21 04:57:14;;;;;;;10.83;9.87;;;;;;;;;;5095943;28;20489;-66
2024/01/21 04:59:40;;;;;;;10.87;10.07;;;;;;;;;;5096642;28;20562;-65
2024/01/21 05:02:07;;;;;;;10.60;9.80;;;;;;;;;;5091472;28;20486;-66
2024/01/21 05:04:33;;;;;;;10.60;9.70;;;;;;;;;;5098023;28;20487;-66
2024/01/21 05:06:59;;;;;;;9.93;9.23;;;;;;;;;;5102071;28;20514;-66
2024/01/21 05:09:26;;;;;;;9.77;9.07;;;;;;;;;;5094528;28;20447;-66
2024/01/21 05:11:52;;;;;;;11.17;10.40;;;;;;;;;;5096174;28;20995;-66
2024/01/21 05:14:20;;;;;;;11.00;9.10;;;;;;;;;;5094071;28;20474;-67
2024/01/21 05:16:47;;;;;;;9.70;9.00;;;;;;;;;;5091842;28;20521;-65
2024/01/21 05:19:13;;;;;;;10.30;9.50;;;;;;;;;;5097654;28;20902;-65
2024/01/21 05:21:40;;;;;;;9.83;9.17;;;;;;;;;;5100672;28;20443;-67
2024/01/21 05:24:06;;;;;;;10.20;9.50;;;;;;;;;;5100534;28;20582;-66
2024/01/21 05:26:33;;;;;;;10.40;9.50;;;;;;;;;;5093922;28;20479;-66
2024/01/21 05:29:00;;;;;;;10.33;9.53;;;;;;;;;;5093753;28;20477;-65
2024/01/21 05:31:32;;;;;;;9.97;9.30;;;;;;;;;;5093589;28;20511;-66
2024/01/21 05:33:58;;;;;;;10.47;9.67;;;;;;;;;;5093580;28;20465;-66
2024/01/21 05:36:24;;;;;;;10.30;9.63;;;;;;;;;;5095888;28;20483;-65
2024/01/21 05:38:51;;;;;;;9.30;8.70;;;;;;;;;;5094461;28;20551;-65
2024/01/21 05:41:17;;;;;;;9.87;9.17;;;;;;;;;;5092620;28;20518;-65
2024/01/21 05:43:44;;;;;;;9.97;9.27;;;;;;;;;;5096571;28;20471;-66
2024/01/21 05:46:11;;;;;;;9.90;9.27;;;;;;;;;;5094194;28;20485;-66
2024/01/21 05:48:38;;;;;;;9.40;8.70;;;;;;;;;;5089503;28;20481;-66
2024/01/21 05:51:05;;;;;;;10.93;10.20;;;;;;;;;;5095678;28;20454;-65
2024/01/21 05:53:31;;;;;;;10.47;9.70;;;;;;;;;;5095723;28;20454;-66
2024/01/21 05:55:58;;;;;;;9.63;8.93;;;;;;;;;;5100913;28;20506;-66
2024/01/21 05:58:24;;;;;;;9.53;8.83;;;;;;;;;;5092507;28;20530;-67
2024/01/21 06:00:51;;;;;;;9.67;9.03;;;;;;;;;;5093979;28;20490;-66
2024/01/21 06:03:17;;;;;;;9.80;9.10;;;;;;;;;;5098405;28;20546;-65
2024/01/21 06:05:45;;;;;;;10.60;9.70;;;;;;;;;;5092714;28;21052;-65
2024/01/21 06:08:11;;;;;;;10.80;9.80;;;;;;;;;;5097571;28;20974;-66
2024/01/21 06:10:37;;;;;;;9.60;9.00;;;;;;;;;;5093744;28;20981;-67
2024/01/21 06:13:04;;;;;;;8.70;8.10;;;;;;;;;;5105421;28;20462;-65
2024/01/21 06:15:30;;;;;;;9.40;8.80;;;;;;;;;;5097684;28;20464;-65
2024/01/21 06:17:57;;;;;;;9.63;8.83;;;;;;;;;;5109740;28;20511;-65
2024/01/21 06:20:24;;;;;;;9.90;9.20;;;;;;;;;;5095727;28;20512;-65
2024/01/21 06:22:51;;;;;;;9.77;9.17;;;;;;;;;;5095337;28;20514;-65
2024/01/21 06:25:18;;;;;;;10.17;9.43;;;;;;;;;;5092661;28;20873;-66
2024/01/21 06:27:44;;;;;;;9.47;8.77;;;;;;;;;;5098863;28;20450;-67
2024/01/21 06:30:12;;;;;;;9.57;8.87;;;;;;;;;;5104712;28;21227;-65
2024/01/21 06:32:38;;;;;;;9.73;9.10;;;;;;;;;;5097786;28;20459;-65
2024/01/21 06:35:05;;;;;;;10.57;9.87;;;;;;;;;;5098684;28;20561;-65
2024/01/21 06:37:31;;;;;;;10.17;9.40;;;;;;;;;;5101616;28;20470;-67
2024/01/21 06:39:59;;;;;;;10.40;9.80;;;;;;;;;;5091339;28;20515;-66
2024/01/21 06:42:26;;;;;;;10.37;9.77;;;;;;;;;;5090946;28;20448;-65
2024/01/21 06:44:52;;;;;;;9.80;9.20;;;;;;;;;;5096826;28;20708;-65
2024/01/21 06:47:19;;;;;;;10.33;9.73;;;;;;;;;;5104285;28;20435;-65
2024/01/21 06:49:45;;;;;;;10.57;9.60;;;;;;;;;;5098233;28;20929;-65
2024/01/21 06:52:11;;;;;;;10.07;9.47;;;;;;;;;;5095894;28;20447;-66
2024/01/21 06:54:38;;;;;;;10.20;9.50;;;;;;;;;;5096411;28;20478;-66
2024/01/21 06:57:06;;;;;;;10.57;9.90;;;;;;;;;;5096343;28;20518;-65
2024/01/21 06:59:32;;;;;;;10.43;9.73;;;;;;;;;;5095502;28;20483;-65
2024/01/21 07:01:59;;;;;;;10.70;9.90;;;;;;;;;;5098195;28;20510;-66
2024/01/21 07:04:25;;;;;;;10.40;9.60;;;;;;;;;;5091819;28;20574;-65
2024/01/21 07:06:52;;;;;;;9.97;9.37;;;;;;;;;;5094405;28;21009;-66
2024/01/21 07:09:18;;;;;;;10.40;9.70;;;;;;;;;;5091759;28;20458;-66
2024/01/21 07:11:46;;;;;;;10.03;9.33;;;;;;;;;;5089895;28;20467;-66
2024/01/21 07:14:15;;;;;;;10.17;9.50;;;;;;;;;;5090124;28;20485;-65
2024/01/21 07:16:41;;;;;;;9.40;8.87;;;;;;;;;;5089947;28;20455;-65
2024/01/21 07:19:08;;;;;;;14.17;12.90;;;;;;;;;;5091743;28;20530;-65
2024/01/21 07:21:34;;;;;;;10.03;9.27;;;;;;;;;;5095122;28;20525;-65
2024/01/21 07:24:01;;;;;;;10.70;9.90;;;;;;;;;;5090861;28;20458;-65
2024/01/21 07:26:28;;;;;;;10.30;9.50;;;;;;;;;;5089361;28;20435;-65
2024/01/21 07:28:54;;;;;;;10.60;9.80;;;;;;;;;;5094478;28;20474;-71
2024/01/21 07:31:22;;;;;;;8.30;7.80;;;;;;;;;;5094665;28;20439;-71
2024/01/21 07:33:48;;;;;;;9.10;8.30;;;;;;;;;;5091862;28;20494;-71
2024/01/21 07:36:15;;;;;;;9.90;9.30;;;;;;;;;;5095790;28;20910;-71
2024/01/21 07:38:41;;;;;;;10.17;9.47;;;;;;;;;;5082573;28;20797;-71
2024/01/21 07:41:07;;;;;;;9.07;8.37;;;;;;;;;;5086583;28;20532;-71
2024/01/21 07:43:34;;;;;;;8.00;7.33;;;;;;;;;;5085967;28;20526;-68
2024/01/21 07:46:02;;;;;;;7.90;7.30;;;;;;;;;;5087888;28;20534;-68
2024/01/21 07:48:30;;;;;;;9.10;8.30;;;;;;;;;;5093154;28;20909;-71
2024/01/21 07:50:56;;;;;;;9.27;8.67;;;;;;;;;;5089921;28;20471;-71
2024/01/21 07:53:24;;;;;;;11.53;10.83;;;;;;;;;;5096191;28;20484;-70
2024/01/21 07:55:50;;;;;;;11.93;11.10;;;;;;;;;;5092922;28;20467;-70
2024/01/21 07:58:18;;;;;;;11.03;10.27;;;;;;;;;;5087811;28;20474;-69
2024/01/21 08:00:44;;;;;;;11.47;10.50;;;;;;;;;;5098096;28;20486;-70
2024/01/21 08:03:11;;;;;;;9.07;8.47;;;;;;;;;;5098583;28;20479;-69
2024/01/21 08:05:38;;;;;;;10.03;9.43;;;;;;;;;;5089997;28;20491;-70
2024/01/21 08:08:05;;;;;;;10.30;9.70;;;;;;;;;;5101068;28;20470;-70
2024/01/21 08:10:32;;;;;;;11.57;10.53;;;;;;;;;;5093951;28;20500;-71
2024/01/21 08:12:58;;;;;;;10.77;9.97;;;;;;;;;;5106364;28;20496;-71
2024/01/21 08:15:25;;;;;;;9.50;8.90;;;;;;;;;;5095044;28;20515;-71
2024/01/21 08:17:51;;;;;;;10.47;9.57;;;;;;;;;;5083700;28;20455;-68
2024/01/21 08:20:18;;;;;;;11.40;10.43;;;;;;;;;;5092950;28;20617;-71
2024/01/21 08:22:46;;;;;;;10.67;9.87;;;;;;;;;;5081658;28;20788;-68
2024/01/21 08:25:12;;;;;;;9.73;8.83;;;;;;;;;;5093106;28;20893;-70
2024/01/21 08:27:38;;;;;;;15.17;14.07;;;;;;;;;;5090858;28;20535;-70
2024/01/21 08:30:05;;;;;;;15.80;14.60;;;;;;;;;;5091735;28;20843;-71
2024/01/21 08:32:32;;;;;;;14.57;13.73;;;;;;;;;;5092436;28;20550;-69
2024/01/21 08:34:58;;;;;;;14.53;13.53;;;;;;;;;;5083837;28;20834;-70
2024/01/21 08:37:24;;;;;;;10.43;9.63;;;;;;;;;;5087013;28;20466;-70
2024/01/21 08:39:52;;;;;;;9.77;9.07;;;;;;;;;;5091250;28;20511;-71
2024/01/21 08:42:19;;;;;;;11.40;10.30;;;;;;;;;;5083149;28;20510;-70
2024/01/21 08:44:46;;;;;;;8.73;8.00;;;;;;;;;;5086316;28;20443;-68
2024/01/21 08:47:14;;;;;;;11.77;10.80;;;;;;;;;;5090060;28;20490;-71
2024/01/21 08:49:40;;;;;;;23.60;20.20;;;;;;;;;;5088130;28;20455;-70
2024/01/21 08:52:07;;;;;;;11.27;10.47;;;;;;;;;;5082351;28;20486;-69
2024/01/21 08:54:33;;;;;;;13.77;12.57;;;;;;;;;;5091750;28;20550;-68
2024/01/21 08:57:01;;;;;;;10.80;9.97;;;;;;;;;;5093110;28;20483;-70
2024/01/21 08:59:28;;;;;;;10.37;9.77;;;;;;;;;;5088315;28;21035;-68
2024/01/21 09:01:54;;;;;;;10.67;9.90;;;;;;;;;;5094913;28;20439;-71
2024/01/21 09:04:21;;;;;;;10.73;9.83;;;;;;;;;;5091375;28;20490;-71
2024/01/21 09:06:47;;;;;;;10.37;9.60;;;;;;;;;;5085897;28;20505;-69
2024/01/21 09:09:13;;;;;;;10.37;9.67;;;;;;;;;;5084737;28;20504;-68
2024/01/21 09:11:40;;;;;;;11.90;11.10;;;;;;;;;;5090384;28;20525;-69
2024/01/21 09:14:08;;;;;;;10.90;10.10;;;;;;;;;;5082226;28;20462;-68
2024/01/21 09:16:34;;;;;;;10.70;9.90;;;;;;;;;;5088749;28;20496;-68
2024/01/21 09:19:01;;;;;;;10.40;9.27;;;;;;;;;;5084460;28;20494;-67
2024/01/21 09:21:28;;;;;;;14.60;13.80;;;;;;;;;;5090462;28;20482;-74
2024/01/21 09:23:54;;;;;;;14.73;13.93;;;;;;;;;;5087862;28;20486;-70
2024/01/21 09:26:21;;;;;;;16.33;15.03;;;;;;;;;;5085414;28;20464;-69
2024/01/21 09:28:47;;;;;;;15.93;14.93;;;;;;;;;;5088138;28;20547;-69
2024/01/21 09:31:15;;;;;;;16.20;15.20;;;;;;;;;;5088035;28;20481;-70
2024/01/21 09:33:42;;;;;;;14.37;13.47;;;;;;;;;;5086003;28;20551;-68
2024/01/21 09:36:08;;;;;;;14.10;13.23;;;;;;;;;;5092670;28;20466;-70
2024/01/21 09:38:35;;;;;;;11.43;10.60;;;;;;;;;;5089770;28;20523;-69
2024/01/21 09:41:06;;;;;;;9.90;9.17;;;;;;;;;;5090919;28;20550;-66
2024/01/21 09:43:34;;;;;;;9.87;9.10;;;;;;;;;;5090582;28;20454;-68
2024/01/21 09:46:02;;;;;;;10.70;10.03;;;;;;;;;;5087331;28;20474;-70
2024/01/21 09:48:30;;;;;;;11.60;10.07;;;;;;;;;;5086063;28;20497;-68
2024/01/21 09:50:58;;;;;;;10.03;9.23;;;;;;;;;;5093642;28;20490;-70
2024/01/21 09:53:25;;;;;;;10.53;9.83;;;;;;;;;;5086194;28;20451;-70
2024/01/21 09:55:54;;;;;;;10.23;9.43;;;;;;;;;;5090267;28;21054;-67
2024/01/21 09:58:21;;;;;;;10.53;9.57;;;;;;;;;;5088378;28;20474;-66
2024/01/21 10:00:49;;;;;;;11.00;10.07;;;;;;;;;;5084039;28;20490;-67
2024/01/21 10:03:15;;;;;;;11.20;10.40;;;;;;;;;;5093264;28;20518;-65
2024/01/21 10:05:43;;;;;;;10.53;9.73;;;;;;;;;;5094989;28;20454;-65
2024/01/21 10:08:10;;;;;;;11.60;10.80;;;;;;;;;;5100046;28;20435;-70
2024/01/21 10:10:36;;;;;;;11.57;10.73;;;;;;;;;;5093775;28;20700;-71
2024/01/21 10:13:05;;;;;;;9.10;8.50;;;;;;;;;;5103923;28;20546;-69
2024/01/21 10:15:31;;;;;;;16.00;14.80;;;;;;;;;;5093049;28;20532;-70
2024/01/21 10:17:58;;;;;;;15.70;14.60;;;;;;;;;;5092806;28;20824;-72
2024/01/21 10:20:25;;;;;;;14.47;13.57;;;;;;;;;;5093130;28;20494;-71
2024/01/21 10:22:52;;;;;;;16.40;15.10;;;;;;;;;;5094781;28;20480;-71
2024/01/21 10:25:21;;;;;;;14.73;13.57;;;;;;;;;;5094084;28;20486;-72
2024/01/21 10:27:51;;;;;;;16.00;14.83;;;;;;;;;;5093329;28;20460;-71
2024/01/21 10:30:19;;;;;;;15.77;14.67;;;;;;;;;;5095033;28;20886;-69
2024/01/21 10:32:45;;;;;;;14.70;13.70;;;;;;;;;;5091070;28;20455;-70
2024/01/21 10:35:12;;;;;;;14.63;13.50;;;;;;;;;;5092871;28;20562;-70
2024/01/21 10:37:41;;;;;;;14.07;13.17;;;;;;;;;;5095787;28;20472;-72
2024/01/21 10:40:10;;;;;;;15.93;14.93;;;;;;;;;;5093964;28;20504;-72
2024/01/21 10:42:37;;;;;;;15.80;14.60;;;;;;;;;;5090287;28;20460;-72
2024/01/21 10:45:05;;;;;;;16.07;14.80;;;;;;;;;;5087488;28;20562;-72
2024/01/21 10:47:33;;;;;;;10.80;10.00;;;;;;;;;;5090766;28;20474;-71
2024/01/21 10:49:59;;;;;;;13.90;12.87;;;;;;;;;;5089887;28;20924;-68
2024/01/21 10:52:26;;;;;;;15.50;14.30;;;;;;;;;;5091791;28;20476;-71
2024/01/21 10:54:54;;;;;;;15.50;14.33;;;;;;;;;;5091608;28;20779;-70
2024/01/21 10:57:21;;;;;;;15.23;14.30;;;;;;;;;;5094432;28;20490;-68
2024/01/21 10:59:48;;;;;;;10.53;9.73;;;;;;;;;;5091830;28;20515;-69
2024/01/21 11:02:14;;;;;;;12.07;11.07;;;;;;;;;;5091421;28;20459;-69
2024/01/21 11:04:41;;;;;;;12.33;11.27;;;;;;;;;;5090824;28;20487;-73
2024/01/21 11:07:11;;;;;;;10.77;9.77;;;;;;;;;;5095330;28;20879;-71
2024/01/21 11:09:39;;;;;;;15.30;14.20;;;;;;;;;;5093131;28;20546;-69
2024/01/21 11:12:06;;;;;;;14.17;10.70;;;;;;;;;;5088417;28;20541;-72
2024/01/21 11:14:34;;;;;;;15.00;13.80;;;;;;;;;;5096663;28;21020;-69
2024/01/21 11:17:02;;;;;;;12.37;11.20;;;;;;;;;;5094396;28;20482;-68
2024/01/21 11:19:30;;;;;;;10.27;9.37;;;;;;;;;;5097302;28;20491;-68
2024/01/21 11:21:58;;;;;;;15.57;14.37;;;;;;;;;;5089640;28;20566;-68
2024/01/21 11:24:28;;;;;;;11.50;10.40;;;;;;;;;;5093581;28;20495;-69
2024/01/21 11:26:55;;;;;;;13.67;12.60;;;;;;;;;;5088893;28;20462;-72
2024/01/21 11:29:22;;;;;;;11.17;10.27;;;;;;;;;;5091983;28;20443;-66
2024/01/21 11:31:50;;;;;;;11.70;10.60;;;;;;;;;;5092801;28;20441;-70
2024/01/21 11:34:17;;;;;;;13.30;12.40;;;;;;;;;;5088358;28;20447;-74
2024/01/21 11:36:44;;;;;;;11.70;10.60;;;;;;;;;;5090647;28;20518;-67
2024/01/21 11:39:10;;;;;;;15.50;14.20;;;;;;;;;;5089306;28;21033;-70
2024/01/21 11:41:38;;;;;;;12.30;11.20;;;;;;;;;;5084843;28;20515;-70
2024/01/21 11:44:14;;;;;;;12.30;11.20;;;;;;;;;;5089036;28;20454;-69
2024/01/21 11:46:41;;;;;;;17.43;15.87;;;;;;;;;;5087204;28;20466;-69
2024/01/21 11:49:09;;;;;;;11.70;10.70;;;;;;;;;;5090186;28;20456;-69
2024/01/21 11:51:36;;;;;;;14.20;13.10;;;;;;;;;;5087353;28;21016;-69
2024/01/21 11:54:03;;;;;;;10.63;9.83;;;;;;;;;;5084366;28;20853;-69
2024/01/21 11:56:29;;;;;;;11.33;10.20;;;;;;;;;;5082856;28;20502;-69
2024/01/21 11:58:57;;;;;;;12.60;11.30;;;;;;;;;;5085532;28;21062;-69
2024/01/21 12:01:24;;;;;;;11.43;10.23;;;;;;;;;;5085342;28;20480;-65
2024/01/21 12:03:50;;;;;;;16.20;14.90;;;;;;;;;;5089221;28;20841;-67
2024/01/21 12:06:19;;;;;;;12.03;10.90;;;;;;;;;;5091357;28;20455;-69
2024/01/21 12:08:45;;;;;;;11.63;10.73;;;;;;;;;;5089621;28;20499;-67
2024/01/21 12:11:13;;;;;;;15.83;14.50;;;;;;;;;;5090805;28;20519;-70
2024/01/21 12:13:39;;;;;;;14.97;13.70;;;;;;;;;;5084614;28;20511;-69
2024/01/21 12:16:06;;;;;;;14.70;13.53;;;;;;;;;;5084699;28;20456;-69
2024/01/21 12:18:33;;;;;;;13.10;11.80;;;;;;;;;;5088417;28;20471;-67
2024/01/21 12:20:59;;;;;;;11.20;10.20;;;;;;;;;;5085886;28;20819;-65
2024/01/21 12:23:28;;;;;;;12.83;11.63;;;;;;;;;;5083268;28;20496;-68
2024/01/21 12:25:55;;;;;;;12.13;11.13;;;;;;;;;;5090389;28;20455;-66
2024/01/21 12:28:22;;;;;;;17.17;15.87;;;;;;;;;;5082835;28;20454;-67
2024/01/21 12:30:48;;;;;;;13.53;12.30;;;;;;;;;;5087021;28;20511;-67
2024/01/21 12:33:15;;;;;;;11.93;10.93;;;;;;;;;;5091700;28;20542;-67
2024/01/21 12:35:41;;;;;;;12.90;11.70;;;;;;;;;;5090345;28;20446;-67
2024/01/21 12:38:08;;;;;;;13.27;12.13;;;;;;;;;;5086091;28;20481;-68
2024/01/21 12:40:35;;;;;;;11.77;10.73;;;;;;;;;;5085968;28;20526;-68
2024/01/21 12:43:02;;;;;;;12.10;10.90;;;;;;;;;;5085679;28;20455;-66
2024/01/21 12:45:28;;;;;;;14.50;10.97;;;;;;;;;;5089068;28;20472;-68
2024/01/21 12:47:56;;;;;;;15.73;14.43;;;;;;;;;;5089705;28;21041;-68
2024/01/21 12:50:23;;;;;;;13.10;11.17;;;;;;;;;;5091197;28;20467;-66
2024/01/21 12:52:50;;;;;;;11.60;10.60;;;;;;;;;;5090330;28;20729;-68
2024/01/21 12:55:16;;;;;;;13.23;11.43;;;;;;;;;;5090269;28;20559;-67
2024/01/21 12:57:44;;;;;;;11.83;10.77;;;;;;;;;;5089976;28;20487;-68
2024/01/21 13:00:11;;;;;;;12.30;11.07;;;;;;;;;;5093494;28;20454;-67
2024/01/21 13:02:38;;;;;;;12.43;11.30;;;;;;;;;;5091362;28;20501;-66
2024/01/21 13:05:05;;;;;;;12.33;11.13;;;;;;;;;;5091374;28;20488;-66
2024/01/21 13:07:32;;;;;;;11.47;10.40;;;;;;;;;;5093405;28;20469;-66
2024/01/21 13:10:00;;;;;;;13.27;12.13;;;;;;;;;;5088421;28;20494;-66
2024/01/21 13:12:25;;;;;;;12.27;11.13;;;;;;;;;;5089112;28;21411;-66
2024/01/21 13:14:54;;;;;;;12.20;11.10;;;;;;;;;;5086850;28;20459;-66
2024/01/21 13:17:21;;;;;;;12.73;11.60;;;;;;;;;;5089028;28;20205;-66
2024/01/21 13:19:47;;;;;;;12.80;11.67;;;;;;;;;;5089681;28;20543;-66
2024/01/21 13:22:14;;;;;;;13.57;12.27;;;;;;;;;;5087631;28;20961;-67
2024/01/21 13:24:40;;;;;;;13.20;12.00;;;;;;;;;;5090905;28;20922;-66
2024/01/21 13:27:11;;;;;;;12.53;11.23;;;;;;;;;;5088318;28;20511;-67
2024/01/21 13:32:23;;;;;;;12.57;11.47;;;;;;;;;;5090701;28;20469;-79
2024/01/21 13:34:49;;;;;;;13.10;11.90;;;;;;;;;;5088398;28;20464;-73
2024/01/21 13:37:16;;;;;;;13.23;12.10;;;;;;;;;;5094569;28;20459;-73
2024/01/21 13:39:43;;;;;;;14.17;12.10;;;;;;;;;;5086829;28;21070;-74
2024/01/21 13:42:09;;;;;;;12.73;11.43;;;;;;;;;;5084513;28;20503;-72
2024/01/21 13:44:36;;;;;;;13.37;12.07;;;;;;;;;;5085361;28;20491;-66
2024/01/21 13:47:02;;;;;;;12.50;11.30;;;;;;;;;;5089259;28;20554;-65
2024/01/21 13:49:30;;;;;;;11.70;10.60;;;;;;;;;;5094712;28;20456;-66
2024/01/21 13:51:56;;;;;;;14.90;12.03;;;;;;;;;;5093152;28;20447;-66
2024/01/21 13:54:23;;;;;;;13.00;11.77;;;;;;;;;;5090728;28;20483;-65
2024/01/21 13:56:49;;;;;;;12.90;11.60;;;;;;;;;;5101828;28;20485;-65
2024/01/21 13:59:15;;;;;;;14.30;12.90;;;;;;;;;;5095315;28;20478;-67
2024/01/21 14:01:42;;;;;;;16.53;14.97;;;;;;;;;;5099418;28;20546;-67
2024/01/21 14:04:08;;;;;;;13.10;11.87;;;;;;;;;;5100357;28;20450;-67
2024/01/21 14:06:36;;;;;;;13.17;11.97;;;;;;;;;;5083410;28;20443;-67
2024/01/21 14:09:03;;;;;;;13.33;12.13;;;;;;;;;;5088269;28;20466;-67
2024/01/21 14:11:29;;;;;;;13.87;12.47;;;;;;;;;;5085962;28;20519;-66
2024/01/21 14:13:55;;;;;;;12.37;11.37;;;;;;;;;;5085790;28;20483;-67
2024/01/21 14:16:22;;;;;;;12.67;11.57;;;;;;;;;;5088999;28;20460;-67
2024/01/21 14:18:48;;;;;;;13.27;11.60;;;;;;;;;;5084627;28;20669;-67
2024/01/21 14:21:15;;;;;;;12.60;11.40;;;;;;;;;;5091839;28;21100;-66
2024/01/21 14:23:43;;;;;;;13.27;12.10;;;;;;;;;;5094266;28;20443;-65